Almond, NC

8:31 PM EDT on August 30, 2015 (GMT -0400)
Glory Mountain NC | | Change Station
CLOSE
Current Station
Personal Weather Station
Location: Bryson City, NC
Elevation: 2631 ft
Nearby Weather Stations

Elev 2631 ft 35.34 °N, 83.55 °W | Updated 2 seconds ago

Mostly Cloudy
Mostly Cloudy
63.0 °F
Feels Like 63.0 °F
N
0.0
Wind Variable Wind from NNW
Gusts 0.0 mph

Today
High -- | Low -- °F
--% Chance of Precip.
Yesterday
High -- | Low -- °F
Precip. -- in
7:05 AM 8:04 PM
Full, 98% visible
Pressure 30.15 in
Visibility 10.0 miles
Clouds Scattered Clouds 6500 ft
Dew Point 62 °F
Humidity 96%
Rainfall 0.04 in
Snow Depth Not available.
UV 0.0 out of 12
Pollen 8.00 out of 12
Air Quality Not available.
Flu Activity Not available.
METAR KRHP 310015Z AUTO 00000KT 10SM SCT065 19/19 A3015 RMK AO2 T01910191
Pressure 30.15 in
Visibility 10.0 miles
Clouds Scattered Clouds 6500 ft
Dew Point 62 °F
Humidity 96%
Rainfall 0.04 in
Snow Depth Not available.
UV 0.0 out of 12
Pollen 8.00 out of 12
Air Quality Not available.
Flu Activity Not available.
METAR KRHP 310015Z AUTO 00000KT 10SM SCT065 19/19 A3015 RMK AO2 T01910191

10-Day Weather Forecast

×

Almanac

Astronomy

Aug. 30, 2015 Rise Set
Actual Time
Civil Twilight
Nautical Twilight
Astronomical Twilight
Moon
Length of Visible Light
Length of Day
Tomorrow will be .
, % of the Moon is Illuminated

Today's Extremes

State Highs State Lows

Community

WunderPhotos

Upload Photos

1,851,111 photos uploaded!

WunderBlogs® & News

Nearby

Air Quality

  Air Quality AQ Index Pollutant
Not available.

Snow Depth

Station Depth Elevation

Earthquake Activity

City Distance Mag. Time & Date
Minimum magnitude displayed is 2.5.

Coastal Water Temperatures

Place Temperature

Stations

Nearby Weather Stations

Station Location Temp. Windchill Dew Point Humidity Wind Precip. Elev Updated Type